map of SGY home
SGY - Airport
Location
City:  Skagway, Alaska, United States
ICAO:PAGY
IATA:SGY
FAA LID:SGY

Details
Type:Airport (Airfield)
Use:Public/Civil, International (customs landing rights)
Latitude:5927'36"N (59.460062)
Longitude:13518'56"W (-135.315663)
Datum:WGS 1984
Elevation:44 ft (13 m)
Variation:19.20E (WMM2015v2 magnetic declination)
-0.24 annual change
Runways:1
Longest:3550 × 75 ft (1082 × 23 m), paved

Time
Time Zone:UTC-9 (DST-8)
Local Time:

Weather
METAR:PAGY 041353Z AUTO 05005KT 10SM BKN100 M07/M21 A3017 RMK AO2 SLP217 T10721206 TSNO
TAF:PAGY 041131Z 0412/0512 05010KT P6SM OVC090
FM050300 05010G18KT P6SM SCT100
AMD LTD TO CLD VIS AND WIND

Related Locations
Nearby:
Farthest:PLZ: 10469 mi / 16848 km
Port Elizabeth [Intl], EC, ZA

Find:

   beyond  
but within

Other Information
Maps:
NOTAMs:
Links:
Sources:

  
  • flag of United States
  • flag of Alaska
  

Sectional Chart

Flight Planning
at skyvector.com

Satellite Image

Google Maps Satellite view

 

Copyright © 2004-2019 Karl L. Swartz. All rights reserved.
The Great Circle Mapper name and logo are trademarks of the Great Circle Mapper.
All other trademarks mentioned herein belong to their respective owners.
Please see credits for attibutions and further copyright information.

  Follow gcmap on Facebook Follow gcmap on Twitter GCmap on LinkedIn

hCard Microformat

Geo Microformat